Time;durP1;ratioP1;P1;durP2;ratioP2;P2;SDS_P1;SDS_P2;PMS_P1;PMS_P2;Temp;Humidity;BMP_temperature;BMP_pressure;BME280_temperature;BME280_humidity;BME280_pressure;Samples;Min_cycle;Max_cycle;Signal;HPM_P1;HPM_P2
2022/04/14 00:00:19;;;;;;;17.85;6.32;;;9.30;99.90;;;;;;5030850;28;20048;-66
2022/04/14 00:02:45;;;;;;;19.58;6.45;;;9.30;99.90;;;;;;5030719;28;20030;-66
2022/04/14 00:05:11;;;;;;;18.20;7.15;;;9.10;99.90;;;;;;5033176;28;20476;-66
2022/04/14 00:07:37;;;;;;;18.02;6.20;;;9.10;99.90;;;;;;5031455;28;20025;-66
2022/04/14 00:10:04;;;;;;;17.17;7.40;;;9.00;99.90;;;;;;5031123;28;20067;-66
2022/04/14 00:12:29;;;;;;;21.17;7.03;;;8.90;99.90;;;;;;5034373;28;20033;-66
2022/04/14 00:14:55;;;;;;;16.27;6.80;;;8.90;99.90;;;;;;5030955;28;20033;-67
2022/04/14 00:17:21;;;;;;;15.95;6.13;;;8.80;99.90;;;;;;5030806;28;20416;-67
2022/04/14 00:19:47;;;;;;;16.58;6.70;;;8.80;99.90;;;;;;5030325;28;20032;-67
2022/04/14 00:22:12;;;;;;;16.90;6.88;;;8.80;99.90;;;;;;5032428;28;20051;-66
2022/04/14 00:24:38;;;;;;;17.35;7.13;;;8.80;99.90;;;;;;5031555;28;20041;-65
2022/04/14 00:27:04;;;;;;;21.00;7.22;;;8.80;99.90;;;;;;5032066;28;20033;-66
2022/04/14 00:29:30;;;;;;;20.20;7.85;;;8.70;99.90;;;;;;5029901;28;20041;-67
2022/04/14 00:31:55;;;;;;;21.08;10.10;;;8.70;99.90;;;;;;5030346;28;20033;-66
2022/04/14 00:34:21;;;;;;;27.67;11.32;;;8.60;99.90;;;;;;5029446;28;20030;-66
2022/04/14 00:36:47;;;;;;;22.10;9.57;;;8.60;99.90;;;;;;5032183;28;20037;-66
2022/04/14 00:39:13;;;;;;;26.77;9.88;;;8.60;99.90;;;;;;5031159;28;20021;-67
2022/04/14 00:41:38;;;;;;;31.02;12.07;;;8.50;99.90;;;;;;5029766;28;20497;-66
2022/04/14 00:44:05;;;;;;;38.50;13.45;;;8.60;99.90;;;;;;5029461;28;20042;-66
2022/04/14 00:46:31;;;;;;;31.75;13.32;;;8.50;99.90;;;;;;5033004;28;20025;-66
2022/04/14 00:48:58;;;;;;;29.83;12.73;;;8.40;99.90;;;;;;5027546;28;20485;-66
2022/04/14 00:51:23;;;;;;;43.05;15.40;;;8.40;99.90;;;;;;5031757;28;20021;-66
2022/04/14 00:53:49;;;;;;;38.30;14.60;;;8.40;99.90;;;;;;5030608;28;20088;-66
2022/04/14 00:56:15;;;;;;;47.35;14.57;;;8.40;99.90;;;;;;5031337;28;20079;-67
2022/04/14 00:58:41;;;;;;;43.80;15.13;;;8.40;99.90;;;;;;5029596;28;20029;-66
2022/04/14 01:01:08;;;;;;;36.33;15.60;;;8.50;99.90;;;;;;5028244;28;20034;-67
2022/04/14 01:03:35;;;;;;;39.83;15.23;;;8.40;99.90;;;;;;5030862;28;20167;-66
2022/04/14 01:06:02;;;;;;;50.75;17.65;;;8.40;99.90;;;;;;5031373;28;20083;-66
2022/04/14 01:08:29;;;;;;;38.53;13.90;;;8.30;99.90;;;;;;5030349;28;20030;-66
2022/04/14 01:10:55;;;;;;;;;;;8.30;99.90;;;;;;5029680;28;20025;-66
2022/04/14 01:13:21;;;;;;;32.85;12.80;;;8.20;99.90;;;;;;5026740;28;20435;-66
2022/04/14 01:15:48;;;;;;;31.58;12.85;;;8.20;99.90;;;;;;5027948;28;20033;-66
2022/04/14 01:18:15;;;;;;;30.42;12.63;;;8.20;99.90;;;;;;5026653;28;20078;-66
2022/04/14 01:20:42;;;;;;;39.27;13.40;;;8.10;99.90;;;;;;5027668;28;20425;-66
2022/04/14 01:23:10;;;;;;;34.47;13.75;;;8.10;99.90;;;;;;5029800;28;20306;-66
2022/04/14 01:25:36;;;;;;;;;;;8.10;99.90;;;;;;5030484;28;20033;-66
2022/04/14 01:28:03;;;;;;;36.88;14.23;;;8.10;99.90;;;;;;5030645;28;20012;-66
2022/04/14 01:30:29;;;;;;;34.63;15.18;;;8.10;99.90;;;;;;5025247;28;20079;-66
2022/04/14 01:32:55;;;;;;;40.35;14.85;;;8.10;99.90;;;;;;5030776;28;20029;-66
2022/04/14 01:35:22;;;;;;;32.05;13.55;;;8.00;99.90;;;;;;5029996;28;20045;-66
2022/04/14 01:37:47;;;;;;;36.67;14.80;;;7.90;99.90;;;;;;5031034;28;20030;-66
2022/04/14 01:40:13;;;;;;;44.67;16.40;;;7.90;99.90;;;;;;5029515;28;20029;-66
2022/04/14 01:42:39;;;;;;;34.90;14.25;;;7.90;99.90;;;;;;5027911;28;20405;-66
2022/04/14 01:45:10;;;;;;;44.40;16.70;;;7.90;99.90;;;;;;5022962;28;20030;-66
2022/04/14 01:47:43;;;;;;;73.72;21.15;;;8.00;99.90;;;;;;5032609;28;20116;-66
2022/04/14 01:50:13;;;;;;;47.95;18.35;;;7.90;99.90;;;;;;5026321;28;20037;-66
2022/04/14 01:52:40;;;;;;;41.10;18.38;;;7.90;99.90;;;;;;5028864;28;20483;-66
2022/04/14 01:55:06;;;;;;;38.75;18.75;;;7.90;99.90;;;;;;5030881;28;20191;-66
2022/04/14 01:57:33;;;;;;;43.35;17.25;;;7.80;99.90;;;;;;5030870;28;20033;-67
2022/04/14 01:59:59;;;;;;;65.93;21.20;;;7.70;99.90;;;;;;5030470;28;20373;-67
2022/04/14 02:02:25;;;;;;;45.25;19.33;;;7.70;99.90;;;;;;5032754;28;20021;-66
2022/04/14 02:04:51;;;;;;;53.17;20.65;;;7.70;99.90;;;;;;5030045;28;20026;-66
2022/04/14 02:07:18;;;;;;;67.88;22.67;;;7.60;99.90;;;;;;5029313;28;20564;-66
2022/04/14 02:09:44;;;;;;;81.10;24.65;;;7.60;99.90;;;;;;5025420;28;20045;-66
2022/04/14 02:12:11;;;;;;;90.53;26.95;;;7.60;99.90;;;;;;5030019;28;20161;-67
2022/04/14 02:14:37;;;;;;;101.75;27.08;;;7.70;99.90;;;;;;5027655;28;20084;-66
2022/04/14 02:17:03;;;;;;;85.28;25.13;;;7.90;99.90;;;;;;5043383;28;20037;-66
2022/04/14 02:19:29;;;;;;;55.60;20.80;;;8.00;99.90;;;;;;5021504;28;20030;-66
2022/04/14 02:21:58;;;;;;;43.88;18.90;;;7.90;99.90;;;;;;5017946;28;20033;-67
2022/04/14 02:24:26;;;;;;;33.50;17.45;;;7.80;99.90;;;;;;5023926;28;20116;-67
2022/04/14 02:26:55;;;;;;;34.30;16.67;;;7.70;99.90;;;;;;5031853;28;20091;-66
2022/04/14 02:29:21;;;;;;;44.55;16.90;;;7.70;99.90;;;;;;5026779;28;20120;-66
2022/04/14 02:31:46;;;;;;;50.47;19.00;;;7.60;99.90;;;;;;5020585;28;20108;-67
2022/04/14 02:34:12;;;;;;;66.22;22.60;;;7.60;99.90;;;;;;5031789;28;20041;-66
2022/04/14 02:36:38;;;;;;;67.60;21.88;;;7.60;99.90;;;;;;5032581;28;20481;-66
2022/04/14 02:39:04;;;;;;;62.55;22.58;;;7.70;99.90;;;;;;5030810;28;20030;-66
2022/04/14 02:41:29;;;;;;;67.25;22.38;;;7.70;99.90;;;;;;5015924;28;20032;-66
2022/04/14 02:43:55;;;;;;;82.00;23.50;;;7.80;99.90;;;;;;5032665;28;20024;-66
2022/04/14 02:46:21;;;;;;;156.43;22.95;;;7.80;99.90;;;;;;5023435;28;20040;-66
2022/04/14 02:48:46;;;;;;;193.75;20.73;;;7.80;99.90;;;;;;5035029;28;20029;-66
2022/04/14 02:51:12;;;;;;;353.20;29.98;;;7.80;99.90;;;;;;5029734;28;20499;-66
2022/04/14 02:53:38;;;;;;;152.57;22.65;;;7.60;99.90;;;;;;5042082;28;20409;-66
2022/04/14 02:56:05;;;;;;;178.13;21.90;;;7.40;99.90;;;;;;5035472;28;20037;-66
2022/04/14 02:58:32;;;;;;;107.80;21.08;;;7.40;99.90;;;;;;5027055;28;20025;-66
2022/04/14 03:00:57;;;;;;;91.25;21.02;;;7.40;99.90;;;;;;5028968;28;20108;-66
2022/04/14 03:03:24;;;;;;;84.63;21.35;;;7.30;99.90;;;;;;5016743;28;20529;-66
2022/04/14 03:05:50;;;;;;;118.55;28.75;;;7.30;99.90;;;;;;5034008;28;20037;-66
2022/04/14 03:08:17;;;;;;;95.32;26.27;;;7.30;99.90;;;;;;5030954;28;20041;-66
2022/04/14 03:10:43;;;;;;;127.72;29.05;;;7.30;99.90;;;;;;5019205;28;20109;-66
2022/04/14 03:13:08;;;;;;;70.03;24.52;;;7.40;99.90;;;;;;5031178;28;20112;-66
2022/04/14 03:15:34;;;;;;;71.47;22.05;;;7.30;99.90;;;;;;5030965;28;20029;-66
2022/04/14 03:18:00;;;;;;;50.75;19.98;;;7.30;99.90;;;;;;5035086;28;20037;-66
2022/04/14 03:20:26;;;;;;;99.60;24.90;;;7.20;99.90;;;;;;5025885;28;20052;-67
2022/04/14 03:22:51;;;;;;;150.05;26.75;;;7.10;99.90;;;;;;5034817;28;20033;-66
2022/04/14 03:25:17;;;;;;;147.90;26.17;;;7.10;99.90;;;;;;5029281;28;20038;-67
2022/04/14 03:27:43;;;;;;;163.68;24.52;;;7.50;99.90;;;;;;5032241;28;20030;-66
2022/04/14 03:30:10;;;;;;;304.63;27.17;;;7.80;99.90;;;;;;5028098;28;20104;-66
2022/04/14 03:32:44;;;;;;;267.73;23.98;;;8.00;99.90;;;;;;5039139;28;20109;-66
2022/04/14 03:35:11;;;;;;;230.02;21.65;;;8.30;99.90;;;;;;5022043;28;20117;-66
2022/04/14 03:37:37;;;;;;;294.80;23.35;;;8.50;99.90;;;;;;5027863;28;20365;-66
2022/04/14 03:40:04;;;;;;;294.08;24.42;;;8.60;99.90;;;;;;5017185;28;20026;-66
2022/04/14 03:42:30;;;;;;;230.73;23.75;;;8.60;99.90;;;;;;5030656;28;20519;-66
2022/04/14 03:44:56;;;;;;;131.70;23.75;;;8.70;99.90;;;;;;5018536;28;20054;-66
2022/04/14 03:47:21;;;;;;;113.93;23.00;;;8.60;99.90;;;;;;5039472;28;20037;-65
2022/04/14 03:49:47;;;;;;;134.95;19.98;;;8.30;99.90;;;;;;5030690;28;20041;-66
2022/04/14 03:52:13;;;;;;;93.75;19.50;;;8.20;99.90;;;;;;5034092;28;20049;-65
2022/04/14 03:54:38;;;;;;;82.35;20.27;;;8.00;99.90;;;;;;5026273;28;20030;-67
2022/04/14 03:57:05;;;;;;;58.53;17.20;;;8.00;99.90;;;;;;5030254;28;20162;-66
2022/04/14 03:59:30;;;;;;;103.78;19.38;;;7.90;99.90;;;;;;5029416;28;20484;-66
2022/04/14 04:01:57;;;;;;;69.85;18.80;;;7.90;99.90;;;;;;5025695;28;20126;-66
2022/04/14 04:04:23;;;;;;;58.70;19.17;;;7.90;99.90;;;;;;5033974;28;20036;-66
2022/04/14 04:06:48;;;;;;;137.85;23.77;;;7.90;99.90;;;;;;5022458;28;20373;-66
2022/04/14 04:09:14;;;;;;;87.03;20.65;;;7.90;99.90;;;;;;5026881;28;20033;-66
2022/04/14 04:11:40;;;;;;;78.22;20.15;;;7.90;99.90;;;;;;5031165;28;20029;-66
2022/04/14 04:14:06;;;;;;;101.55;21.23;;;8.00;99.90;;;;;;5033903;28;20091;-67
2022/04/14 04:16:32;;;;;;;71.18;19.02;;;8.10;99.90;;;;;;5031869;28;20021;-66
2022/04/14 04:18:57;;;;;;;159.45;20.45;;;8.10;99.90;;;;;;5032749;28;20033;-66
2022/04/14 04:21:25;;;;;;;148.98;22.23;;;8.10;99.90;;;;;;5028749;28;20038;-66
2022/04/14 04:23:51;;;;;;;105.18;21.65;;;8.10;99.90;;;;;;5020151;28;20064;-66
2022/04/14 04:26:16;;;;;;;102.68;20.60;;;8.20;99.90;;;;;;5028944;28;20033;-67
2022/04/14 04:28:42;;;;;;;99.82;18.45;;;8.20;99.90;;;;;;5032763;28;20061;-67
2022/04/14 04:31:07;;;;;;;141.48;16.23;;;8.30;99.90;;;;;;5022669;28;20033;-66
2022/04/14 04:33:33;;;;;;;109.00;18.92;;;8.30;99.90;;;;;;5042855;28;20103;-67
2022/04/14 04:35:59;;;;;;;95.28;18.60;;;8.30;99.90;;;;;;5028674;28;20438;-66
2022/04/14 04:38:24;;;;;;;261.67;24.58;;;8.40;99.90;;;;;;5023415;28;20026;-66
2022/04/14 04:40:50;;;;;;;245.98;22.42;;;8.50;99.90;;;;;;5016712;28;20022;-67
2022/04/14 04:43:15;;;;;;;454.77;30.00;;;8.50;99.90;;;;;;5022151;28;20033;-67
2022/04/14 04:45:44;;;;;;;146.70;16.58;;;8.50;99.90;;;;;;5014357;28;20397;-66
2022/04/14 04:48:10;;;;;;;96.60;17.35;;;8.60;99.90;;;;;;5021744;28;20778;-69
2022/04/14 04:50:36;;;;;;;119.10;15.80;;;8.70;99.90;;;;;;5043760;28;20453;-67
2022/04/14 04:53:01;;;;;;;198.30;18.10;;;8.70;99.90;;;;;;5032824;28;20042;-67
2022/04/14 04:55:27;;;;;;;299.52;20.58;;;8.60;99.90;;;;;;5033028;28;20026;-64
2022/04/14 04:57:53;;;;;;;357.25;25.48;;;8.60;99.90;;;;;;5048575;28;20049;-65
2022/04/14 05:00:18;;;;;;;224.27;21.55;;;8.60;99.90;;;;;;5025790;28;20061;-65
2022/04/14 05:02:45;;;;;;;166.52;16.95;;;8.60;99.90;;;;;;5016516;28;20053;-66
2022/04/14 05:05:10;;;;;;;199.45;17.30;;;8.50;99.90;;;;;;5045358;28;20512;-65
2022/04/14 05:07:36;;;;;;;258.95;22.35;;;8.50;99.90;;;;;;5042905;28;20013;-65
2022/04/14 05:10:02;;;;;;;283.30;22.77;;;8.50;99.90;;;;;;5029988;28;20022;-64
2022/04/14 05:12:27;;;;;;;272.23;25.90;;;8.50;99.90;;;;;;5025661;28;20052;-66
2022/04/14 05:14:53;;;;;;;372.60;25.17;;;8.50;99.90;;;;;;5024958;28;20477;-66
2022/04/14 05:17:19;;;;;;;384.33;23.15;;;8.40;99.90;;;;;;5028350;28;20034;-62
2022/04/14 05:19:45;;;;;;;267.92;19.25;;;8.30;99.90;;;;;;5013127;28;20026;-63
2022/04/14 05:22:10;;;;;;;305.88;21.25;;;8.30;99.90;;;;;;5030641;28;20034;-64
2022/04/14 05:24:36;;;;;;;115.03;15.10;;;8.30;99.90;;;;;;5025063;28;20456;-66
2022/04/14 05:27:02;;;;;;;226.65;17.00;;;8.20;99.90;;;;;;5031857;28;20389;-64
2022/04/14 05:29:28;;;;;;;82.68;12.98;;;8.20;99.90;;;;;;5029373;28;20144;-64
2022/04/14 05:31:53;;;;;;;100.50;15.10;;;8.10;99.90;;;;;;5030486;28;20035;-65
2022/04/14 05:34:19;;;;;;;85.78;12.82;;;8.10;99.90;;;;;;5028130;28;20113;-64
2022/04/14 05:36:45;;;;;;;64.63;13.32;;;8.10;99.90;;;;;;5026749;28;20036;-66
2022/04/14 05:39:10;;;;;;;94.47;12.18;;;8.00;99.90;;;;;;5028683;28;20397;-64
2022/04/14 05:41:36;;;;;;;60.75;11.52;;;8.00;99.90;;;;;;5028893;28;20068;-66
2022/04/14 05:44:02;;;;;;;100.88;13.65;;;8.00;99.90;;;;;;5021980;28;20060;-66
2022/04/14 05:46:28;;;;;;;58.70;11.85;;;7.90;99.90;;;;;;5030128;28;20041;-66
2022/04/14 05:48:53;;;;;;;72.82;12.50;;;8.00;99.90;;;;;;5026613;28;20039;-66
2022/04/14 05:51:21;;;;;;;95.43;12.25;;;8.00;99.90;;;;;;5029352;28;20473;-66
2022/04/14 05:53:50;;;;;;;68.07;14.13;;;8.10;99.90;;;;;;5026118;28;20129;-66
2022/04/14 05:56:17;;;;;;;87.57;13.30;;;8.10;99.90;;;;;;5027197;28;20057;-66
2022/04/14 05:58:46;;;;;;;141.15;15.55;;;8.30;99.90;;;;;;5021275;28;20285;-66
2022/04/14 06:01:12;;;;;;;95.97;12.77;;;8.30;99.90;;;;;;5020393;28;20050;-66
2022/04/14 06:03:38;;;;;;;99.13;13.85;;;8.20;99.90;;;;;;5029097;28;20022;-66
2022/04/14 06:06:05;;;;;;;81.13;15.20;;;8.10;99.90;;;;;;5030011;28;20036;-67
2022/04/14 06:08:31;;;;;;;113.90;16.38;;;8.00;99.90;;;;;;5030446;28;20060;-67
2022/04/14 06:10:56;;;;;;;133.00;15.82;;;7.90;99.90;;;;;;5030197;28;20493;-66
2022/04/14 06:13:22;;;;;;;60.60;12.73;;;7.80;99.90;;;;;;5036168;28;20065;-66
2022/04/14 06:15:48;;;;;;;56.75;11.85;;;7.90;99.90;;;;;;5032344;28;20041;-66
2022/04/14 06:18:13;;;;;;;54.13;10.95;;;7.90;99.90;;;;;;5028757;28;20061;-66
2022/04/14 06:20:39;;;;;;;34.10;10.20;;;8.00;99.90;;;;;;5031126;28;20056;-66
2022/04/14 06:23:05;;;;;;;32.25;9.63;;;7.90;99.90;;;;;;5033150;28;20033;-66
2022/04/14 06:25:31;;;;;;;26.48;9.05;;;8.00;99.90;;;;;;5034490;28;20094;-67
2022/04/14 06:27:56;;;;;;;40.20;10.82;;;8.00;99.90;;;;;;5030925;28;20041;-67
2022/04/14 06:30:22;;;;;;;36.85;9.02;;;8.00;99.90;;;;;;5036791;28;20031;-66
2022/04/14 06:32:59;;;;;;;61.85;10.50;;;8.00;99.90;;;;;;5030740;28;20025;-67
2022/04/14 06:35:25;;;;;;;25.38;9.50;;;8.10;99.90;;;;;;5032742;28;20025;-67
2022/04/14 06:37:52;;;;;;;51.25;13.00;;;8.20;99.90;;;;;;5034663;28;20017;-67
2022/04/14 06:40:18;;;;;;;44.85;12.15;;;8.30;99.90;;;;;;5030043;28;20047;-67
2022/04/14 06:42:43;;;;;;;33.33;10.07;;;8.50;99.90;;;;;;5034039;28;20481;-67
2022/04/14 06:45:09;;;;;;;42.85;9.82;;;8.50;99.90;;;;;;5034409;28;20026;-68
2022/04/14 06:47:35;;;;;;;36.33;11.15;;;8.70;99.90;;;;;;5033461;28;20048;-68
2022/04/14 06:50:00;;;;;;;62.85;11.18;;;8.70;99.90;;;;;;5030895;28;20030;-67
2022/04/14 06:52:26;;;;;;;86.75;11.02;;;8.80;99.90;;;;;;5016554;28;20107;-67
2022/04/14 06:54:52;;;;;;;171.27;16.73;;;8.90;99.90;;;;;;5018292;28;20037;-67
2022/04/14 06:57:19;;;;;;;118.25;12.15;;;8.90;99.90;;;;;;5027599;28;20036;-68
2022/04/14 06:59:44;;;;;;;101.17;13.07;;;9.00;99.90;;;;;;5035174;28;20025;-67
2022/04/14 07:02:10;;;;;;;35.00;11.23;;;9.00;99.90;;;;;;5035930;28;20064;-68
2022/04/14 07:04:36;;;;;;;31.13;11.63;;;9.10;99.90;;;;;;5035172;28;20029;-68
2022/04/14 07:07:02;;;;;;;52.30;10.93;;;9.30;99.90;;;;;;5034795;28;20032;-68
2022/04/14 07:09:34;;;;;;;48.53;10.85;;;9.30;99.90;;;;;;5034631;28;20033;-68
2022/04/14 07:12:03;;;;;;;24.45;9.43;;;9.30;99.90;;;;;;5035019;28;20022;-68
2022/04/14 07:14:30;;;;;;;75.47;10.73;;;9.40;99.90;;;;;;5037528;28;20036;-68
2022/04/14 07:17:00;;;;;;;28.00;8.77;;;9.60;99.90;;;;;;5038250;28;20029;-68
2022/04/14 07:19:26;;;;;;;26.70;8.10;;;9.70;99.90;;;;;;5034540;28;20075;-67
2022/04/14 07:21:52;;;;;;;62.88;8.38;;;9.90;99.90;;;;;;5033887;28;20026;-68
2022/04/14 07:24:19;;;;;;;72.25;10.65;;;9.80;99.90;;;;;;5015012;28;20034;-68
2022/04/14 07:26:45;;;;;;;79.38;9.75;;;9.80;99.90;;;;;;5026974;28;20091;-68
2022/04/14 07:29:11;;;;;;;43.55;9.35;;;9.80;99.90;;;;;;5034517;28;20041;-68
2022/04/14 07:31:37;;;;;;;29.90;8.85;;;10.00;99.90;;;;;;5050898;28;20522;-69
2022/04/14 07:34:05;;;;;;;65.95;9.55;;;10.20;99.90;;;;;;5043646;28;20025;-68
2022/04/14 07:36:31;;;;;;;14.00;7.95;;;10.50;99.90;;;;;;5034160;28;20021;-68
2022/04/14 07:38:56;;;;;;;60.05;8.98;;;10.60;99.90;;;;;;5032064;28;20036;-68
2022/04/14 07:41:22;;;;;;;34.95;8.77;;;10.60;99.90;;;;;;5033495;28;20469;-68
2022/04/14 07:43:48;;;;;;;37.25;10.80;;;10.60;99.90;;;;;;5034273;28;20124;-68
2022/04/14 07:46:14;;;;;;;28.70;11.10;;;10.60;99.90;;;;;;5041096;28;20032;-68
2022/04/14 07:48:39;;;;;;;34.90;10.23;;;10.70;99.90;;;;;;5032874;28;20431;-68
2022/04/14 07:51:05;;;;;;;20.90;8.43;;;10.70;99.90;;;;;;5032272;28;20025;-68
2022/04/14 07:53:31;;;;;;;21.60;8.50;;;10.60;99.90;;;;;;5036884;28;20127;-68
2022/04/14 07:55:57;;;;;;;26.45;8.57;;;10.70;99.90;;;;;;5040499;28;20561;-68
2022/04/14 07:58:22;;;;;;;21.85;8.50;;;10.60;99.90;;;;;;5024803;28;20022;-68
2022/04/14 08:00:50;;;;;;;22.20;8.88;;;10.70;99.90;;;;;;5037542;28;20116;-68
2022/04/14 08:03:16;;;;;;;17.20;7.85;;;10.70;99.90;;;;;;5035644;28;20024;-68
2022/04/14 08:05:45;;;;;;;16.17;7.75;;;10.90;99.90;;;;;;5032383;28;20029;-68
2022/04/14 08:08:13;;;;;;;17.73;7.72;;;11.00;99.90;;;;;;5031659;28;20108;-68
2022/04/14 08:10:48;;;;;;;18.60;7.80;;;11.10;99.90;;;;;;5019248;28;20433;-68
2022/04/14 08:13:14;;;;;;;17.60;8.00;;;11.20;99.90;;;;;;5034970;28;20025;-68
2022/04/14 08:15:40;;;;;;;15.07;8.02;;;11.10;99.90;;;;;;5032363;28;21029;-68
2022/04/14 08:18:07;;;;;;;19.27;8.00;;;11.10;99.90;;;;;;5028104;28;20021;-68
2022/04/14 08:20:39;;;;;;;16.95;9.43;;;11.20;99.90;;;;;;5027825;28;20909;-68
2022/04/14 08:23:06;;;;;;;16.92;7.75;;;11.40;99.90;;;;;;5032741;28;20041;-68
2022/04/14 08:25:33;;;;;;;18.75;8.45;;;11.70;99.90;;;;;;5031564;28;20509;-68
2022/04/14 08:28:03;;;;;;;17.30;8.43;;;11.90;99.90;;;;;;5032752;28;20033;-68
2022/04/14 08:30:30;;;;;;;24.27;8.90;;;12.30;99.90;;;;;;5023294;28;20029;-68
2022/04/14 08:32:59;;;;;;;25.75;11.48;;;12.50;99.90;;;;;;5034069;28;20041;-68
2022/04/14 08:35:26;;;;;;;25.05;12.63;;;12.70;99.90;;;;;;5037725;28;20549;-69
2022/04/14 08:37:51;;;;;;;28.17;13.25;;;13.00;99.90;;;;;;5028895;28;20022;-68
2022/04/14 08:40:21;;;;;;;23.98;11.77;;;13.40;99.90;;;;;;5027967;28;20068;-69
2022/04/14 08:43:05;;;;;;;18.42;9.13;;;13.30;99.90;;;;;;5030644;28;20030;-70
2022/04/14 08:45:33;;;;;;;17.70;10.10;;;13.50;99.90;;;;;;5032682;28;20477;-70
2022/04/14 08:48:02;;;;;;;20.80;10.95;;;13.60;99.90;;;;;;5032510;28;20029;-71
2022/04/14 08:50:28;;;;;;;14.95;8.68;;;13.40;99.90;;;;;;5032790;28;20115;-72
2022/04/14 08:52:54;;;;;;;17.00;7.32;;;13.30;99.90;;;;;;5032433;28;20539;-71
2022/04/14 08:55:21;;;;;;;15.73;7.40;;;13.30;99.90;;;;;;5032432;28;20021;-70
2022/04/14 08:57:47;;;;;;;16.45;8.05;;;13.50;99.90;;;;;;5030776;28;20041;-69
2022/04/14 09:00:17;;;;;;;18.25;8.45;;;13.70;99.90;;;;;;5036072;28;20029;-70
2022/04/14 09:02:43;;;;;;;14.40;8.13;;;13.70;99.90;;;;;;5043446;28;20027;-69
2022/04/14 09:05:10;;;;;;;14.95;6.90;;;13.90;99.90;;;;;;5052114;28;20072;-69
2022/04/14 09:07:38;;;;;;;16.15;6.78;;;14.30;99.90;;;;;;5052070;28;20032;-65
2022/04/14 09:10:05;;;;;;;15.82;7.07;;;14.50;99.90;;;;;;5052108;28;20021;-69
2022/04/14 09:12:32;;;;;;;13.30;6.10;;;14.60;99.90;;;;;;5051188;28;20025;-70
2022/04/14 09:15:00;;;;;;;13.02;5.90;;;14.90;99.90;;;;;;5051912;28;20465;-69
2022/04/14 09:17:27;;;;;;;11.73;5.85;;;15.30;99.90;;;;;;5051887;28;20104;-71
2022/04/14 09:19:52;;;;;;;11.37;5.73;;;15.60;99.90;;;;;;5049849;28;20041;-69
2022/04/14 09:22:20;;;;;;;11.98;5.65;;;16.00;99.90;;;;;;5037999;28;20457;-71
2022/04/14 09:24:55;;;;;;;12.55;5.25;;;16.40;99.90;;;;;;5030830;28;20037;-67
2022/04/14 09:27:37;;;;;;;11.60;5.07;;;16.40;99.90;;;;;;5030311;28;20033;-64
2022/04/14 09:30:08;;;;;;;16.35;9.07;;;16.50;99.90;;;;;;5020093;28;20029;-67
2022/04/14 09:32:44;;;;;;;17.15;8.05;;;16.50;99.90;;;;;;5030668;28;20021;-68
2022/04/14 09:35:18;;;;;;;21.48;8.07;;;16.40;99.90;;;;;;5029458;28;20091;-64
2022/04/14 09:37:45;;;;;;;16.30;8.40;;;16.70;99.90;;;;;;5030971;28;20030;-66
2022/04/14 09:40:11;;;;;;;16.75;7.65;;;16.40;99.90;;;;;;5030281;28;20032;-64
2022/04/14 09:42:42;;;;;;;18.00;6.55;;;16.40;99.90;;;;;;5030769;28;20399;-65
2022/04/14 09:45:28;;;;;;;12.07;4.70;;;16.60;99.90;;;;;;5030936;28;20025;-63
2022/04/14 09:48:00;;;;;;;11.85;4.75;;;17.00;99.90;;;;;;5011003;28;20030;-63
2022/04/14 09:50:40;;;;;;;9.38;3.60;;;17.80;99.90;;;;;;5011925;28;20346;-66
2022/04/14 09:53:08;;;;;;;13.88;4.47;;;18.20;96.60;;;;;;5026399;28;20057;-65
2022/04/14 09:55:37;;;;;;;11.63;4.35;;;18.20;95.60;;;;;;5031268;28;20414;-65
2022/04/14 09:58:09;;;;;;;10.82;2.90;;;18.40;97.90;;;;;;5031458;28;20022;-65
2022/04/14 10:00:52;;;;;;;10.43;2.95;;;18.50;95.70;;;;;;5030711;28;20443;-65
2022/04/14 10:03:27;;;;;;;10.70;3.10;;;18.30;96.80;;;;;;5028930;28;20132;-64
2022/04/14 10:05:55;;;;;;;11.75;3.42;;;18.90;96.00;;;;;;5031456;28;20029;-62
2022/04/14 10:08:24;;;;;;;8.90;3.33;;;18.90;94.50;;;;;;5031433;28;20057;-64
2022/04/14 10:11:03;;;;;;;8.75;3.10;;;19.10;94.00;;;;;;5030889;28;20041;-61
2022/04/14 10:13:34;;;;;;;11.05;2.13;;;19.10;93.90;;;;;;5043056;28;20324;-63
2022/04/14 10:16:00;;;;;;;9.07;2.00;;;19.60;91.90;;;;;;5031446;28;20029;-64
2022/04/14 10:18:26;;;;;;;11.07;1.70;;;19.70;92.40;;;;;;5030852;28;20645;-63
2022/04/14 10:20:52;;;;;;;7.88;2.33;;;19.90;90.90;;;;;;5031287;28;20026;-63
2022/04/14 10:23:17;;;;;;;9.38;2.65;;;20.40;90.00;;;;;;5030903;28;20021;-64
2022/04/14 10:25:43;;;;;;;2.67;1.08;;;20.50;90.30;;;;;;5030812;28;20398;-63
2022/04/14 10:28:12;;;;;;;3.45;1.40;;;19.90;86.80;;;;;;5030152;28;20049;-61
2022/04/14 10:30:40;;;;;;;4.90;1.75;;;19.70;88.70;;;;;;5011449;28;20394;-61
2022/04/14 10:33:06;;;;;;;9.05;2.13;;;19.70;89.60;;;;;;5018139;28;20402;-67
2022/04/14 10:35:32;;;;;;;6.88;1.80;;;19.70;89.60;;;;;;5031074;28;20088;-67
2022/04/14 10:38:22;;;;;;;2.50;0.90;;;19.60;90.60;;;;;;5013264;28;20083;-65
2022/04/14 10:40:56;;;;;;;4.68;1.20;;;19.50;84.70;;;;;;5030155;28;20037;-65
2022/04/14 10:43:25;;;;;;;6.10;1.23;;;19.20;85.70;;;;;;5030437;28;20503;-66
2022/04/14 10:45:56;;;;;;;6.55;1.90;;;19.20;90.00;;;;;;5030981;28;20439;-67
2022/04/14 10:48:31;;;;;;;3.80;1.45;;;19.90;88.40;;;;;;5030399;28;20429;-66
2022/04/14 10:51:23;;;;;;;4.75;1.30;;;20.30;86.90;;;;;;5031126;28;20424;-66
2022/04/14 10:53:56;;;;;;;4.55;1.02;;;20.40;84.80;;;;;;5030564;28;20045;-66
2022/04/14 10:56:33;;;;;;;3.70;1.30;;;20.30;78.60;;;;;;5031962;28;20038;-67
2022/04/14 10:59:11;;;;;;;9.35;1.80;;;20.30;85.10;;;;;;5034565;28;20045;-66
2022/04/14 11:01:46;;;;;;;1.42;0.30;;;20.90;82.20;;;;;;5033971;28;20025;-65
2022/04/14 11:04:24;;;;;;;4.30;1.00;;;20.30;74.40;;;;;;5034589;28;20040;-64
2022/04/14 11:06:51;;;;;;;1.33;0.15;;;19.80;77.80;;;;;;5034646;28;20038;-64
2022/04/14 11:09:42;;;;;;;3.03;0.50;;;19.40;75.20;;;;;;5025968;28;20030;-69
2022/04/14 11:12:29;;;;;;;0.35;0.10;;;19.70;69.60;;;;;;5032794;28;20082;-68
2022/04/14 11:14:56;;;;;;;1.27;0.13;;;19.90;61.80;;;;;;5047589;28;20034;-68
2022/04/14 11:17:33;;;;;;;0.57;0.10;;;19.70;63.40;;;;;;5015166;28;20061;-70
2022/04/14 11:20:15;;;;;;;0.38;0.10;;;19.30;62.00;;;;;;5033373;28;20466;-70
2022/04/14 11:23:08;;;;;;;2.35;0.20;;;19.10;70.60;;;;;;5014195;28;20030;-70
2022/04/14 11:25:46;;;;;;;2.22;0.35;;;19.00;72.50;;;;;;5033610;28;20036;-69
2022/04/14 11:28:55;;;;;;;1.90;0.22;;;19.20;65.90;;;;;;5036748;28;20037;-69
2022/04/14 11:31:23;;;;;;;1.45;0.05;;;19.50;67.10;;;;;;5020832;28;20052;-70
2022/04/14 11:33:50;;;;;;;0.55;0.00;;;19.40;64.20;;;;;;5031915;28;20171;-69
2022/04/14 11:36:22;;;;;;;0.82;0.20;;;19.70;65.60;;;;;;5032820;28;20501;-70
2022/04/14 11:38:58;;;;;;;0.80;0.13;;;19.50;58.20;;;;;;5033135;28;20389;-69
2022/04/14 11:41:33;;;;;;;0.17;0.10;;;18.60;64.70;;;;;;5013850;28;20025;-70
2022/04/14 11:44:11;;;;;;;0.22;0.08;;;18.30;63.20;;;;;;5016041;28;20088;-70
2022/04/14 11:46:37;;;;;;;;;;;18.30;68.20;;;;;;5033760;28;20119;-69
2022/04/14 11:49:04;;;;;;;0.93;0.10;;;18.40;68.70;;;;;;5032614;28;19912;-70
2022/04/14 11:51:30;;;;;;;0.53;0.50;;;19.00;67.30;;;;;;5033221;28;20049;-69
2022/04/14 11:53:56;;;;;;;2.47;0.50;;;19.60;65.50;;;;;;5032181;28;20372;-69
2022/04/14 11:56:24;;;;;;;2.28;0.40;;;19.90;67.10;;;;;;5031297;28;20034;-66
2022/04/14 11:58:50;;;;;;;4.10;0.70;;;19.60;71.80;;;;;;5034071;28;20489;-60
2022/04/14 12:01:17;;;;;;;1.63;0.40;;;19.20;78.80;;;;;;5032762;28;20454;-64
2022/04/14 12:03:43;;;;;;;1.58;0.40;;;18.80;77.30;;;;;;5036250;28;20025;-65
2022/04/14 12:06:17;;;;;;;3.78;1.05;;;18.90;79.80;;;;;;5040632;28;20029;-66
2022/04/14 12:08:55;;;;;;;2.15;0.60;;;19.30;85.90;;;;;;5032041;28;20546;-63
2022/04/14 12:11:24;;;;;;;4.50;0.95;;;19.90;81.90;;;;;;5033607;28;20079;-63
2022/04/14 12:13:50;;;;;;;4.13;0.65;;;19.90;76.10;;;;;;5032441;28;20431;-62
2022/04/14 12:16:16;;;;;;;2.17;0.38;;;19.90;80.20;;;;;;5033432;28;20105;-63
2022/04/14 12:18:50;;;;;;;1.02;0.60;;;20.10;74.50;;;;;;5033337;28;20083;-66
2022/04/14 12:21:24;;;;;;;4.45;1.00;;;20.20;73.70;;;;;;5032507;28;20049;-61
2022/04/14 12:23:52;;;;;;;3.67;0.60;;;20.40;82.50;;;;;;5033021;28;20117;-64
2022/04/14 12:26:19;;;;;;;3.28;0.70;;;20.70;72.90;;;;;;5032868;28;20036;-68
2022/04/14 12:28:48;;;;;;;2.17;0.60;;;20.30;73.70;;;;;;5032967;28;20036;-67
2022/04/14 12:31:20;;;;;;;3.53;1.00;;;20.60;73.60;;;;;;5033094;28;20037;-67
2022/04/14 12:33:58;;;;;;;2.65;0.60;;;20.60;75.80;;;;;;5013328;28;20048;-63
2022/04/14 12:36:35;;;;;;;2.88;0.60;;;21.20;72.30;;;;;;5011642;28;20421;-64
2022/04/14 12:39:04;;;;;;;5.43;0.70;;;22.30;68.10;;;;;;5020328;28;20041;-67
2022/04/14 12:41:35;;;;;;;3.15;0.70;;;22.00;63.60;;;;;;5032813;28;20040;-69